Main page
METAR-TAF:

METAR-TAF

Airports :

St. Catherine International Airport

Saint Catherine, Egypt

latitude: 28-41-07N, longitude: 034-03-45E, elevation: 1331 m

Current weather observation

The report was made 1 hour and 12 minutes ago, at 18:00 UTC
Wind 9 kt from the North
Temperature 20°C
Humidity 46%
Pressure 1021 hPa
Visibility 10 km or more
no clouds below 1500 m and no cumulonimbus

METAR: HESC 161800Z 36009KT CAVOK 20/08 Q1021 NOSIG

Time: 21:12 (19:12 UTC)

Forecast

The report was made 2 hours and 12 minutes ago, at 17:00 UTC
Forecast valid from 16 at 18 UTC to 17 at 24 UTC
Wind 10 kt from the North/Northeast
Visibility 10 km or more
no clouds below 1500 m and no cumulonimbus

TAF: HESC 161700Z 1618/1724 03010KT CAVOK

Weather observations and forecasts of more than 4000 airports (METAR and TAF reports).

The available stations are represented by yellow and red dots on the map.

Hover mouse over dot to see the name of the station.

Then click to see weather observations and forecasts.

To change the map : click on the green buttons with a black cross to zoom in, on the green button with a dash to zoom out, or on the green arrows for adjacent maps.


METAR-TAF: